createdAt,value
2018-02-21T00:01:38.422Z,72.43
2018-02-21T00:04:12.204Z,78.45
2018-02-21T00:06:46.833Z,92.82
2018-02-21T00:09:20.714Z,141.62
2018-02-21T00:11:54.543Z,83.40
2018-02-21T00:14:29.075Z,101.55
2018-02-21T00:17:03.462Z,67.10
2018-02-21T00:19:38.700Z,67.95
2018-02-21T00:22:13.186Z,85.53
2018-02-21T00:24:46.972Z,62.90
2018-02-21T00:27:20.705Z,83.70
2018-02-21T00:29:54.342Z,63.35
2018-02-21T00:32:28.155Z,61.08
2018-02-21T00:35:02.807Z,71.18
2018-02-21T00:37:36.605Z,68.62
2018-02-21T00:40:11.031Z,66.97
2018-02-21T00:42:45.626Z,73.80
2018-02-21T00:45:19.355Z,71.85
2018-02-21T00:47:53.687Z,59.85
2018-02-21T00:50:28.122Z,69.22
2018-02-21T00:53:01.808Z,62.95
2018-02-21T00:55:35.737Z,69.95
2018-02-21T00:58:09.512Z,65.05
2018-02-21T01:00:43.299Z,71.35
2018-02-21T01:03:17.978Z,66.75
2018-02-21T01:05:52.484Z,66.37
2018-02-21T01:08:27.032Z,64.22
2018-02-21T01:11:00.773Z,62.33
2018-02-21T01:13:34.617Z,68.68
2018-02-21T01:16:09.214Z,86.45
2018-02-21T01:18:43.080Z,65.93
2018-02-21T01:21:16.793Z,75.43
2018-02-21T01:23:50.606Z,77.45
2018-02-21T01:26:25.183Z,73.68
2018-02-21T01:28:58.770Z,85.60
2018-02-21T01:31:32.375Z,79.62
2018-02-21T01:34:07.722Z,64.68
2018-02-21T01:36:42.034Z,67.87
2018-02-21T01:39:15.846Z,84.28
2018-02-21T01:41:49.476Z,96.63
2018-02-21T01:44:23.243Z,113.93
2018-02-21T01:46:56.957Z,116.03
2018-02-21T01:49:30.684Z,131.25
2018-02-21T01:52:04.541Z,107.82
2018-02-21T01:54:39.080Z,72.40
2018-02-21T01:57:13.618Z,90.85
2018-02-21T01:59:47.427Z,98.30
2018-02-21T02:02:21.808Z,92.37
2018-02-21T02:04:55.528Z,79.75
2018-02-21T02:07:29.279Z,85.55
2018-02-21T02:10:04.109Z,77.75
2018-02-21T02:12:39.313Z,92.95
2018-02-21T02:15:13.868Z,87.10
2018-02-21T02:17:48.628Z,76.35
2018-02-21T02:20:22.366Z,77.22
2018-02-21T02:22:55.967Z,72.05
2018-02-21T02:25:29.639Z,68.72
2018-02-21T02:28:03.507Z,83.75
2018-02-21T02:30:38.281Z,80.55
2018-02-21T02:33:11.845Z,78.00
2018-02-21T02:35:47.402Z,97.82
2018-02-21T02:38:33.116Z,70.62
2018-02-21T02:41:07.348Z,89.25
2018-02-21T02:43:41.157Z,77.47
2018-02-21T02:46:14.879Z,76.78
2018-02-21T02:48:49.996Z,75.10
2018-02-21T02:51:23.769Z,92.25
2018-02-21T02:53:58.424Z,77.45
2018-02-21T02:56:32.178Z,70.97
2018-02-21T02:59:06.213Z,74.97
2018-02-21T03:01:40.328Z,78.72
2018-02-21T03:04:14.172Z,69.60
2018-02-21T03:06:48.877Z,81.93
2018-02-21T03:09:22.603Z,107.07
2018-02-21T03:11:56.247Z,72.90
2018-02-21T03:14:30.840Z,87.53
2018-02-21T03:17:04.593Z,73.65
2018-02-21T03:19:38.435Z,79.75
2018-02-21T03:22:12.143Z,84.68
2018-02-21T03:24:47.597Z,74.97
2018-02-21T03:27:21.391Z,80.45
2018-02-21T03:29:55.158Z,77.78
2018-02-21T03:32:29.159Z,78.12
2018-02-21T03:35:02.954Z,93.72
2018-02-21T03:37:38.783Z,75.90
2018-02-21T03:40:12.419Z,87.68
2018-02-21T03:42:46.262Z,93.68
2018-02-21T03:45:19.963Z,103.70
2018-02-21T03:47:54.474Z,128.70
2018-02-21T03:50:28.297Z,117.28
2018-02-21T03:53:03.818Z,125.12
2018-02-21T03:55:37.631Z,96.43
2018-02-21T03:58:11.310Z,105.78
2018-02-21T04:00:44.933Z,83.07
2018-02-21T04:03:21.323Z,84.28
2018-02-21T04:05:55.183Z,79.78
2018-02-21T04:08:29.601Z,96.35
2018-02-21T04:11:04.129Z,78.85
2018-02-21T04:13:37.770Z,86.85
2018-02-21T04:16:11.617Z,75.43
2018-02-21T04:18:45.447Z,80.78
2018-02-21T04:21:20.566Z,78.80
2018-02-21T04:23:54.312Z,73.53
2018-02-21T04:26:28.251Z,80.25
2018-02-21T04:29:02.782Z,84.15
2018-02-21T04:31:37.285Z,96.22
2018-02-21T04:34:11.130Z,81.87
2018-02-21T04:36:44.856Z,86.07
2018-02-21T04:39:19.429Z,96.93
2018-02-21T04:41:53.134Z,84.78
2018-02-21T04:44:28.249Z,85.03
2018-02-21T04:47:03.137Z,98.00
2018-02-21T04:49:37.836Z,94.70
2018-02-21T04:52:13.695Z,101.93
2018-02-21T04:54:53.337Z,80.28
2018-02-21T04:57:33.127Z,90.85
2018-02-21T05:00:07.734Z,89.95
2018-02-21T05:02:42.233Z,71.62
2018-02-21T05:05:16.046Z,70.05
2018-02-21T05:07:50.775Z,96.82
2018-02-21T05:10:24.456Z,117.10
2018-02-21T05:12:58.292Z,100.55
2018-02-21T05:15:32.842Z,119.10
2018-02-21T05:18:07.311Z,90.15
2018-02-21T05:20:42.002Z,75.40
2018-02-21T05:23:15.652Z,88.15
2018-02-21T05:25:49.476Z,72.82
2018-02-21T05:28:23.347Z,84.28
2018-02-21T05:30:57.075Z,83.87
2018-02-21T05:33:30.928Z,71.57
2018-02-21T05:36:05.357Z,71.20
2018-02-21T05:38:41.309Z,73.75
2018-02-21T05:41:15.708Z,72.55
2018-02-21T05:43:49.435Z,80.00
2018-02-21T05:46:23.925Z,86.75
2018-02-21T05:48:57.619Z,87.55
2018-02-21T05:51:32.209Z,84.25
2018-02-21T05:54:05.765Z,72.72
2018-02-21T05:56:39.396Z,75.65
2018-02-21T05:59:14.963Z,80.10
2018-02-21T06:01:48.576Z,79.60
2018-02-21T06:04:23.156Z,83.55
2018-02-21T06:06:57.639Z,79.28
2018-02-21T06:09:31.974Z,90.40
2018-02-21T06:12:06.428Z,74.30
2018-02-21T06:14:40.214Z,73.43
2018-02-21T06:17:13.930Z,85.07
2018-02-21T06:19:47.639Z,94.70
2018-02-21T06:22:22.123Z,97.53
2018-02-21T06:24:55.722Z,134.50
2018-02-21T06:27:30.149Z,92.18
2018-02-21T06:30:03.962Z,129.80
2018-02-21T06:32:37.664Z,90.68
2018-02-21T06:35:11.304Z,83.70
2018-02-21T06:37:45.804Z,117.80
2018-02-21T06:40:19.614Z,84.47
2018-02-21T06:42:53.191Z,82.90
2018-02-21T06:45:27.064Z,88.68
2018-02-21T06:48:00.826Z,79.80
2018-02-21T06:50:34.551Z,83.45
2018-02-21T06:53:08.956Z,84.72
2018-02-21T06:55:43.643Z,82.78
2018-02-21T06:58:17.280Z,86.37
2018-02-21T07:00:51.789Z,86.87
2018-02-21T07:03:25.513Z,99.10
2018-02-21T07:06:00.012Z,79.18
2018-02-21T07:08:33.639Z,91.32
2018-02-21T07:11:07.477Z,82.37
2018-02-21T07:13:41.217Z,96.63
2018-02-21T07:16:14.909Z,76.00
2018-02-21T07:18:48.521Z,80.18
2018-02-21T07:21:22.350Z,87.12
2018-02-21T07:23:56.050Z,75.87
2018-02-21T07:26:31.357Z,96.45
2018-02-21T07:29:04.966Z,76.18
2018-02-21T07:31:39.928Z,111.20
2018-02-21T07:34:15.368Z,114.53
2018-02-21T07:36:49.095Z,87.32
2018-02-21T07:39:22.888Z,87.22
2018-02-21T07:41:56.754Z,86.75
2018-02-21T07:44:31.234Z,84.28
2018-02-21T07:47:04.884Z,72.53
2018-02-21T07:49:38.731Z,77.22
2018-02-21T07:52:12.524Z,80.07
2018-02-21T07:54:46.404Z,83.90
2018-02-21T07:57:20.099Z,106.90
2018-02-21T07:59:54.017Z,72.20
2018-02-21T08:02:27.848Z,85.95
2018-02-21T08:05:01.628Z,77.50
2018-02-21T08:07:36.310Z,73.18
2018-02-21T08:10:10.563Z,81.25
2018-02-21T08:12:44.343Z,81.12
2018-02-21T08:15:19.054Z,72.32
2018-02-21T08:17:52.784Z,73.68
2018-02-21T08:20:26.673Z,77.62
2018-02-21T08:23:01.331Z,77.03
2018-02-21T08:25:35.829Z,83.68
2018-02-21T08:28:09.474Z,71.15
2018-02-21T08:30:43.144Z,87.43
2018-02-21T08:33:17.814Z,95.28
2018-02-21T08:35:51.632Z,86.85
2018-02-21T08:38:26.221Z,107.50
2018-02-21T08:41:00.805Z,89.28
2018-02-21T08:43:34.910Z,98.60
2018-02-21T08:46:08.665Z,77.60
2018-02-21T08:48:43.330Z,70.53
2018-02-21T08:51:17.098Z,71.80
2018-02-21T08:53:51.485Z,66.60
2018-02-21T08:56:25.881Z,74.57
2018-02-21T08:58:59.530Z,61.15
2018-02-21T09:01:34.112Z,56.97
2018-02-21T09:04:08.464Z,68.87
2018-02-21T09:06:42.029Z,60.78
2018-02-21T09:09:16.341Z,64.28
2018-02-21T09:11:50.949Z,109.10
2018-02-21T09:14:25.570Z,72.60
2018-02-21T09:16:59.836Z,48.92
2018-02-21T09:19:33.431Z,59.35
2018-02-21T09:22:07.027Z,56.00
2018-02-21T09:24:42.269Z,62.70
2018-02-21T09:27:17.472Z,52.58
2018-02-21T09:29:51.115Z,54.30
2018-02-21T09:32:25.066Z,54.40
2018-02-21T09:34:59.502Z,47.95
2018-02-21T09:37:33.207Z,65.80
2018-02-21T09:40:06.994Z,103.60
2018-02-21T09:42:40.697Z,99.57
2018-02-21T09:45:14.465Z,68.03
2018-02-21T09:47:49.075Z,74.15
2018-02-21T09:50:23.538Z,43.75
2018-02-21T09:52:57.263Z,43.67
2018-02-21T09:55:31.821Z,45.17
2018-02-21T09:58:05.422Z,41.90
2018-02-21T10:00:39.040Z,40.50
2018-02-21T10:03:13.476Z,49.63
2018-02-21T10:05:47.199Z,42.47
2018-02-21T10:08:20.922Z,36.50
2018-02-21T10:10:55.386Z,40.72
2018-02-21T10:13:29.196Z,44.45
2018-02-21T10:16:02.955Z,42.55
2018-02-21T10:18:37.328Z,44.63
2018-02-21T10:21:12.051Z,33.53
2018-02-21T10:23:45.651Z,39.90
2018-02-21T10:26:20.173Z,36.70
2018-02-21T10:28:54.285Z,37.45
2018-02-21T10:31:27.924Z,39.40
2018-02-21T10:34:01.627Z,41.37
2018-02-21T10:36:35.776Z,41.15
2018-02-21T10:39:10.715Z,64.07
2018-02-21T10:41:45.093Z,211.98
2018-02-21T10:44:19.193Z,144.07
2018-02-21T10:46:54.107Z,96.18
2018-02-21T10:49:28.152Z,59.88
2018-02-21T10:52:02.170Z,45.38
2018-02-21T10:54:36.394Z,43.83
2018-02-21T10:57:10.410Z,40.22
2018-02-21T10:59:44.555Z,38.10
2018-02-21T11:02:18.761Z,45.20
2018-02-21T11:04:52.828Z,41.22
2018-02-21T11:07:27.172Z,46.33
2018-02-21T11:10:01.033Z,44.13
2018-02-21T11:12:35.213Z,40.15
2018-02-21T11:15:09.878Z,39.22
2018-02-21T11:17:43.710Z,46.90
2018-02-21T11:20:17.777Z,41.97
2018-02-21T11:22:52.219Z,38.08
2018-02-21T11:25:27.166Z,55.60
2018-02-21T11:28:01.977Z,41.40
2018-02-21T11:30:35.730Z,41.10
2018-02-21T11:33:10.424Z,39.67
2018-02-21T11:35:44.320Z,38.28
2018-02-21T11:38:18.354Z,44.17
2018-02-21T11:40:52.401Z,44.28
2018-02-21T11:43:26.385Z,52.95
2018-02-21T11:46:00.366Z,162.48
2018-02-21T11:48:35.071Z,179.77
2018-02-21T11:51:09.229Z,137.68
2018-02-21T11:53:43.540Z,88.15
2018-02-21T11:56:19.198Z,55.75
2018-02-21T11:58:53.792Z,47.65
2018-02-21T12:01:28.113Z,37.22
2018-02-21T12:04:02.252Z,42.80
2018-02-21T12:06:37.209Z,44.60
2018-02-21T12:09:10.965Z,38.67
2018-02-21T12:11:45.526Z,41.47
2018-02-21T12:14:19.932Z,42.45
2018-02-21T12:16:54.855Z,45.40
2018-02-21T12:19:29.054Z,45.88
2018-02-21T12:22:02.831Z,43.80
2018-02-21T12:24:36.745Z,45.95
2018-02-21T12:27:10.922Z,44.92
2018-02-21T12:29:44.826Z,41.78
2018-02-21T12:32:24.700Z,40.35
2018-02-21T12:34:58.937Z,49.37
2018-02-21T12:37:33.120Z,46.90
2018-02-21T12:40:06.952Z,50.58
2018-02-21T12:42:41.661Z,49.33
2018-02-21T12:45:15.960Z,44.75
2018-02-21T12:47:49.784Z,44.65
2018-02-21T12:50:24.631Z,49.80
2018-02-21T12:52:59.954Z,48.28
2018-02-21T12:55:34.171Z,48.17
2018-02-21T12:58:09.142Z,46.47
2018-02-21T13:00:43.625Z,81.50
2018-02-21T13:03:17.576Z,182.00
2018-02-21T13:05:51.569Z,150.80
2018-02-21T13:08:25.624Z,178.32
2018-02-21T13:11:00.157Z,90.32
2018-02-21T13:13:34.162Z,61.35
2018-02-21T13:16:08.253Z,47.10
2018-02-21T13:18:42.285Z,47.60
2018-02-21T13:21:17.216Z,50.78
2018-02-21T13:23:51.034Z,48.67
2018-02-21T13:26:25.457Z,48.83
2018-02-21T13:29:00.389Z,45.63
2018-02-21T13:31:34.118Z,47.30
2018-02-21T13:34:08.133Z,53.70
2018-02-21T13:36:42.571Z,50.33
2018-02-21T13:39:16.386Z,44.80
2018-02-21T13:41:51.020Z,40.88
2018-02-21T13:44:25.961Z,49.67
2018-02-21T13:47:00.144Z,47.03
2018-02-21T13:49:34.217Z,45.28
2018-02-21T13:52:08.154Z,39.30
2018-02-21T13:54:42.599Z,42.35
2018-02-21T13:57:17.561Z,47.83
2018-02-21T13:59:51.586Z,53.30
2018-02-21T14:02:25.767Z,44.42
2018-02-21T14:04:59.655Z,105.22
2018-02-21T14:07:34.073Z,167.15
2018-02-21T14:10:08.033Z,179.60
2018-02-21T14:12:42.131Z,129.95
2018-02-21T14:15:16.045Z,76.93
2018-02-21T14:17:50.112Z,48.25
2018-02-21T14:20:23.893Z,48.38
2018-02-21T14:22:57.499Z,49.50
2018-02-21T14:25:31.109Z,49.83
2018-02-21T14:28:04.672Z,48.00
2018-02-21T14:30:39.030Z,42.20
2018-02-21T14:33:13.408Z,49.20
2018-02-21T14:35:47.030Z,98.78
2018-02-21T14:38:20.775Z,50.00
2018-02-21T14:40:54.523Z,60.53
2018-02-21T14:43:28.090Z,54.58
2018-02-21T14:46:01.662Z,53.50
2018-02-21T14:48:35.220Z,59.13
2018-02-21T14:51:08.811Z,54.25
2018-02-21T14:53:42.406Z,54.55
2018-02-21T14:56:16.022Z,56.47
2018-02-21T14:58:50.501Z,51.20
2018-02-21T15:01:24.123Z,58.97
2018-02-21T15:03:58.668Z,51.42
2018-02-21T15:06:32.292Z,63.63
2018-02-21T15:09:05.859Z,67.62
2018-02-21T15:11:40.180Z,95.90
2018-02-21T15:14:13.905Z,91.55
2018-02-21T15:16:47.629Z,51.78
2018-02-21T15:19:21.117Z,55.50
2018-02-21T15:21:55.499Z,58.47
2018-02-21T15:24:29.629Z,55.25
2018-02-21T15:27:03.442Z,59.50
2018-02-21T15:29:36.992Z,59.47
2018-02-21T15:32:10.492Z,65.68
2018-02-21T15:34:44.031Z,53.78
2018-02-21T15:37:17.594Z,53.95
2018-02-21T15:39:51.152Z,62.17
2018-02-21T15:42:24.700Z,55.63
2018-02-21T15:44:58.453Z,62.10
2018-02-21T15:47:32.021Z,55.10
2018-02-21T15:50:05.685Z,58.92
2018-02-21T15:52:40.108Z,64.70
2018-02-21T15:55:13.822Z,60.97
2018-02-21T15:57:47.580Z,67.00
2018-02-21T16:00:21.160Z,75.40
2018-02-21T16:02:54.718Z,77.28
2018-02-21T16:05:29.286Z,71.95
2018-02-21T16:08:02.868Z,73.50
2018-02-21T16:10:36.445Z,92.07
2018-02-21T16:13:10.012Z,125.60
2018-02-21T16:15:43.570Z,101.70
2018-02-21T16:18:17.894Z,83.05
2018-02-21T16:20:52.416Z,77.15
2018-02-21T16:23:26.018Z,82.65
2018-02-21T16:25:59.604Z,75.62
2018-02-21T16:28:33.190Z,91.03
2018-02-21T16:31:06.825Z,81.10
2018-02-21T16:33:40.400Z,91.68
2018-02-21T16:36:14.000Z,88.57
2018-02-21T16:38:47.737Z,85.45
2018-02-21T16:41:21.306Z,88.82
2018-02-21T16:43:54.947Z,86.35
2018-02-21T16:46:28.764Z,85.62
2018-02-21T16:49:02.346Z,86.97
2018-02-21T16:51:35.924Z,92.45
2018-02-21T16:54:15.095Z,83.78
2018-02-21T16:56:48.817Z,83.72
2018-02-21T16:59:22.384Z,86.12
2018-02-21T17:02:02.740Z,83.57
2018-02-21T17:04:36.417Z,96.93
2018-02-21T17:07:10.728Z,102.22
2018-02-21T17:09:44.274Z,130.07
2018-02-21T17:12:18.570Z,114.35
2018-02-21T17:14:52.917Z,93.72
2018-02-21T17:17:26.461Z,81.50
2018-02-21T17:20:00.786Z,94.30
2018-02-21T17:22:34.318Z,93.57
2018-02-21T17:25:08.032Z,86.15
2018-02-21T17:27:41.608Z,100.28
2018-02-21T17:30:15.188Z,89.60
2018-02-21T17:32:48.749Z,92.75
2018-02-21T17:35:22.430Z,91.47
2018-02-21T17:37:55.997Z,99.20
2018-02-21T17:40:29.537Z,93.32
2018-02-21T17:43:03.107Z,97.70
2018-02-21T17:45:36.704Z,95.82
2018-02-21T17:48:10.259Z,84.40
2018-02-21T17:50:43.905Z,93.62
2018-02-21T17:53:18.309Z,98.07
2018-02-21T17:55:52.037Z,81.80
2018-02-21T17:58:25.598Z,92.07
2018-02-21T18:00:59.342Z,84.75
2018-02-21T18:03:32.916Z,89.37
2018-02-21T18:06:07.240Z,94.15
2018-02-21T18:08:41.761Z,123.62
2018-02-21T18:11:15.503Z,105.63
2018-02-21T18:13:49.071Z,106.03
2018-02-21T18:16:23.381Z,90.75
2018-02-21T18:18:57.107Z,97.60
2018-02-21T18:21:36.522Z,78.22
2018-02-21T18:24:10.274Z,102.18
2018-02-21T18:26:43.816Z,96.37
2018-02-21T18:29:18.156Z,104.78
2018-02-21T18:31:51.727Z,97.32
2018-02-21T18:34:25.311Z,88.43
2018-02-21T18:36:58.967Z,94.37
2018-02-21T18:39:33.361Z,94.60
2018-02-21T18:42:07.677Z,93.15
2018-02-21T18:44:41.271Z,99.47
2018-02-21T18:47:15.672Z,89.97
2018-02-21T18:49:50.133Z,97.35
2018-02-21T18:52:23.801Z,87.12
2018-02-21T18:54:57.551Z,84.25
2018-02-21T18:57:31.964Z,84.35
2018-02-21T19:00:05.553Z,81.40
2018-02-21T19:02:39.339Z,86.00
2018-02-21T19:05:13.054Z,116.40
2018-02-21T19:07:46.666Z,121.87
2018-02-21T19:10:20.238Z,94.00
2018-02-21T19:12:54.578Z,92.80
2018-02-21T19:15:28.906Z,82.55
2018-02-21T19:18:02.613Z,81.75
2018-02-21T19:20:36.197Z,79.30
2018-02-21T19:23:09.774Z,88.40
2018-02-21T19:25:44.211Z,92.62
2018-02-21T19:28:17.941Z,80.95
2018-02-21T19:30:51.508Z,92.60
2018-02-21T19:33:25.126Z,82.32
2018-02-21T19:35:58.863Z,92.28
2018-02-21T19:38:32.463Z,85.60
2018-02-21T19:41:06.047Z,89.43
2018-02-21T19:43:39.747Z,75.05
2018-02-21T19:46:13.345Z,81.80
2018-02-21T19:48:46.935Z,84.20
2018-02-21T19:51:20.530Z,76.45
2018-02-21T19:53:54.274Z,80.70
2018-02-21T19:56:27.821Z,79.05
2018-02-21T19:59:01.330Z,80.62
2018-02-21T20:01:34.945Z,66.55
2018-02-21T20:04:08.457Z,76.50
2018-02-21T20:06:42.762Z,91.35
2018-02-21T20:09:16.433Z,94.25
2018-02-21T20:11:50.086Z,83.07
2018-02-21T20:14:23.618Z,91.72
2018-02-21T20:16:57.123Z,79.78
2018-02-21T20:19:30.756Z,79.40
2018-02-21T20:22:04.332Z,72.20
2018-02-21T20:24:37.974Z,76.40
2018-02-21T20:27:12.373Z,71.15
2018-02-21T20:29:45.982Z,72.65
2018-02-21T20:32:19.574Z,77.60
2018-02-21T20:34:53.169Z,75.60
2018-02-21T20:37:26.670Z,71.12
2018-02-21T20:40:00.255Z,73.07
2018-02-21T20:42:33.869Z,66.20
2018-02-21T20:45:07.476Z,64.12
2018-02-21T20:47:41.089Z,67.20
2018-02-21T20:50:14.670Z,70.43
2018-02-21T20:52:48.371Z,70.07
2018-02-21T20:55:21.888Z,67.47
2018-02-21T20:57:55.515Z,65.53
2018-02-21T21:00:30.017Z,61.45
2018-02-21T21:03:04.345Z,60.10
2018-02-21T21:05:37.827Z,57.72
2018-02-21T21:08:11.565Z,112.60
2018-02-21T21:10:45.152Z,99.13
2018-02-21T21:13:18.747Z,89.85
2018-02-21T21:15:52.340Z,74.20
2018-02-21T21:18:26.076Z,70.90
2018-02-21T21:21:00.443Z,64.45
2018-02-21T21:23:33.996Z,62.78
2018-02-21T21:26:07.581Z,72.82
2018-02-21T21:28:41.082Z,62.53
2018-02-21T21:31:14.699Z,54.58
2018-02-21T21:33:48.216Z,58.20
2018-02-21T21:36:22.569Z,62.33
2018-02-21T21:38:56.113Z,66.65
2018-02-21T21:41:29.953Z,59.85
2018-02-21T21:44:03.510Z,56.58
2018-02-21T21:46:37.868Z,58.30
2018-02-21T21:49:11.640Z,53.53
2018-02-21T21:51:45.418Z,56.97
2018-02-21T21:54:19.045Z,66.62
2018-02-21T21:56:52.657Z,64.55
2018-02-21T21:59:26.334Z,63.28
2018-02-21T22:02:00.002Z,65.15
2018-02-21T22:04:33.671Z,54.25
2018-02-21T22:07:07.349Z,59.67
2018-02-21T22:09:40.911Z,67.05
2018-02-21T22:12:14.600Z,108.93
2018-02-21T22:14:48.469Z,93.68
2018-02-21T22:17:23.954Z,114.20
2018-02-21T22:19:57.626Z,80.65
2018-02-21T22:22:31.517Z,70.18
2018-02-21T22:25:05.258Z,69.05
2018-02-21T22:27:39.050Z,75.78
2018-02-21T22:30:12.939Z,59.30
2018-02-21T22:32:46.591Z,52.75
2018-02-21T22:35:21.263Z,92.57
2018-02-21T22:37:54.970Z,60.95
2018-02-21T22:40:29.490Z,78.00
2018-02-21T22:43:04.125Z,77.32
2018-02-21T22:45:38.696Z,65.62
2018-02-21T22:48:12.383Z,65.60
2018-02-21T22:50:47.177Z,64.10
2018-02-21T22:53:20.796Z,72.90
2018-02-21T22:55:55.380Z,71.18
2018-02-21T22:58:29.170Z,65.20
2018-02-21T23:01:02.919Z,67.35
2018-02-21T23:03:36.755Z,59.03
2018-02-21T23:06:11.109Z,72.90
2018-02-21T23:08:44.886Z,68.47
2018-02-21T23:11:18.587Z,72.97
2018-02-21T23:13:52.343Z,63.47
2018-02-21T23:16:26.983Z,75.55
2018-02-21T23:19:00.605Z,58.65
2018-02-21T23:21:34.284Z,67.62
2018-02-21T23:24:09.424Z,64.12
2018-02-21T23:26:42.983Z,56.67
2018-02-21T23:29:16.802Z,57.35
2018-02-21T23:31:50.618Z,62.80
2018-02-21T23:34:25.312Z,61.47
2018-02-21T23:37:00.056Z,68.35
2018-02-21T23:39:33.971Z,72.43
2018-02-21T23:42:08.022Z,63.47
2018-02-21T23:44:41.832Z,67.62
2018-02-21T23:47:16.312Z,90.72
2018-02-21T23:49:50.104Z,122.85
2018-02-21T23:52:23.962Z,119.43
2018-02-21T23:54:57.730Z,90.32
2018-02-21T23:57:31.599Z,94.55
